createdAt,value
2018-12-18T00:02:20.505Z,4.70
2018-12-18T00:04:48.010Z,4.60
2018-12-18T00:07:15.609Z,4.70
2018-12-18T00:09:43.110Z,4.80
2018-12-18T00:12:10.714Z,4.80
2018-12-18T00:14:39.271Z,4.70
2018-12-18T00:17:07.068Z,4.70
2018-12-18T00:19:34.586Z,4.60
2018-12-18T00:22:02.117Z,4.60
2018-12-18T00:24:29.616Z,4.60
2018-12-18T00:26:57.168Z,4.70
2018-12-18T00:29:24.670Z,4.80
2018-12-18T00:31:52.205Z,4.90
2018-12-18T00:34:19.747Z,4.80
2018-12-18T00:36:47.280Z,4.90
2018-12-18T00:39:14.776Z,5.00
2018-12-18T00:41:42.480Z,4.90
2018-12-18T00:44:10.017Z,4.90
2018-12-18T00:46:37.592Z,4.90
2018-12-18T00:49:05.085Z,4.90
2018-12-18T00:51:32.615Z,4.80
2018-12-18T00:54:00.176Z,4.70
2018-12-18T00:56:27.710Z,4.70
2018-12-18T00:58:55.311Z,4.60
2018-12-18T01:01:22.845Z,4.60
2018-12-18T01:03:52.886Z,4.60
2018-12-18T01:06:20.998Z,4.60
2018-12-18T01:08:48.560Z,4.60
2018-12-18T01:11:16.096Z,4.40
2018-12-18T01:13:43.589Z,4.50
2018-12-18T01:16:11.124Z,4.40
2018-12-18T01:18:38.636Z,4.50
2018-12-18T01:21:06.238Z,4.60
2018-12-18T01:23:33.920Z,4.50
2018-12-18T01:26:01.749Z,4.30
2018-12-18T01:28:29.252Z,4.20
2018-12-18T01:30:56.749Z,4.10
2018-12-18T01:33:24.621Z,4.10
2018-12-18T01:35:52.152Z,4.30
2018-12-18T01:38:19.685Z,4.30
2018-12-18T01:40:47.212Z,4.20
2018-12-18T01:43:14.708Z,4.00
2018-12-18T01:45:42.856Z,3.90
2018-12-18T01:48:10.384Z,3.80
2018-12-18T01:50:37.876Z,3.80
2018-12-18T01:53:05.410Z,3.70
2018-12-18T01:55:32.904Z,3.70
2018-12-18T01:58:00.438Z,3.70
2018-12-18T02:00:28.014Z,3.60
2018-12-18T02:02:55.549Z,3.60
2018-12-18T02:05:23.053Z,3.60
2018-12-18T02:07:50.592Z,3.60
2018-12-18T02:10:18.085Z,3.40
2018-12-18T02:12:45.614Z,3.20
2018-12-18T02:15:13.181Z,3.20
2018-12-18T02:17:40.725Z,3.30
2018-12-18T02:20:08.293Z,3.20
2018-12-18T02:22:36.064Z,3.20
2018-12-18T02:25:04.944Z,3.20
2018-12-18T02:27:32.445Z,3.10
2018-12-18T02:29:59.971Z,3.20
2018-12-18T02:32:27.486Z,3.20
2018-12-18T02:34:55.286Z,3.30
2018-12-18T02:37:22.800Z,3.30
2018-12-18T02:39:50.425Z,3.20
2018-12-18T02:42:18.264Z,3.10
2018-12-18T02:44:45.769Z,3.10
2018-12-18T02:47:13.316Z,3.10
2018-12-18T02:49:40.809Z,3.30
2018-12-18T02:52:08.298Z,3.30
2018-12-18T02:54:35.825Z,2.90
2018-12-18T02:57:03.320Z,2.90
2018-12-18T02:59:30.877Z,3.00
2018-12-18T03:01:58.429Z,3.30
2018-12-18T03:04:25.958Z,3.30
2018-12-18T03:06:53.497Z,3.00
2018-12-18T03:09:21.032Z,2.90
2018-12-18T03:11:48.529Z,2.80
2018-12-18T03:14:16.070Z,2.70
2018-12-18T03:16:43.681Z,2.70
2018-12-18T03:19:11.672Z,2.60
2018-12-18T03:21:40.365Z,2.70
2018-12-18T03:24:07.869Z,2.80
2018-12-18T03:26:35.398Z,3.10
2018-12-18T03:29:02.953Z,3.00
2018-12-18T03:31:30.815Z,3.00
2018-12-18T03:33:58.358Z,3.00
2018-12-18T03:36:25.890Z,3.00
2018-12-18T03:38:53.394Z,3.10
2018-12-18T03:41:21.024Z,2.90
2018-12-18T03:43:48.521Z,2.70
2018-12-18T03:46:16.080Z,2.80
2018-12-18T03:48:43.682Z,2.80
2018-12-18T03:51:11.212Z,3.00
2018-12-18T03:53:38.705Z,3.20
2018-12-18T03:56:06.241Z,3.00
2018-12-18T03:58:33.742Z,2.80
2018-12-18T04:01:01.241Z,2.70
2018-12-18T04:03:28.772Z,2.60
2018-12-18T04:05:56.542Z,2.70
2018-12-18T04:08:24.076Z,2.60
2018-12-18T04:10:51.573Z,2.70
2018-12-18T04:13:19.113Z,2.70
2018-12-18T04:15:46.621Z,2.60
2018-12-18T04:18:14.164Z,2.60
2018-12-18T04:20:41.685Z,2.50
2018-12-18T04:23:09.200Z,2.80
2018-12-18T04:25:36.828Z,2.80
2018-12-18T04:28:04.389Z,2.80
2018-12-18T04:30:31.961Z,2.80
2018-12-18T04:32:59.460Z,2.80
2018-12-18T04:35:27.009Z,2.90
2018-12-18T04:37:54.508Z,3.00
2018-12-18T04:40:22.018Z,3.00
2018-12-18T04:42:49.556Z,3.00
2018-12-18T04:45:17.092Z,3.30
2018-12-18T04:47:44.629Z,3.40
2018-12-18T04:50:12.196Z,3.40
2018-12-18T04:52:39.731Z,3.50
2018-12-18T04:55:07.507Z,3.50
2018-12-18T04:57:35.054Z,3.40
2018-12-18T05:00:02.894Z,3.40
2018-12-18T05:02:30.424Z,3.40
2018-12-18T05:04:57.966Z,3.30
2018-12-18T05:07:25.866Z,3.40
2018-12-18T05:09:53.369Z,3.30
2018-12-18T05:12:20.864Z,3.20
2018-12-18T05:14:48.409Z,3.30
2018-12-18T05:17:15.910Z,3.30
2018-12-18T05:19:43.408Z,3.30
2018-12-18T05:22:10.945Z,3.20
2018-12-18T05:24:38.444Z,3.30
2018-12-18T05:27:05.980Z,3.40
2018-12-18T05:29:33.553Z,3.30
2018-12-18T05:32:01.097Z,3.20
2018-12-18T05:34:28.625Z,3.20
2018-12-18T05:36:56.122Z,3.30
2018-12-18T05:39:23.656Z,3.40
2018-12-18T05:41:51.184Z,3.50
2018-12-18T05:44:18.681Z,3.50
2018-12-18T05:46:46.218Z,3.40
2018-12-18T05:49:13.717Z,3.50
2018-12-18T05:51:41.573Z,3.50
2018-12-18T05:54:09.073Z,3.50
2018-12-18T05:56:36.616Z,3.60
2018-12-18T05:59:04.115Z,3.70
2018-12-18T06:01:31.622Z,3.60
2018-12-18T06:03:59.153Z,3.60
2018-12-18T06:06:26.653Z,3.60
2018-12-18T06:08:54.185Z,3.60
2018-12-18T06:11:21.689Z,3.60
2018-12-18T06:13:49.225Z,3.90
2018-12-18T06:16:16.729Z,4.00
2018-12-18T06:18:44.276Z,3.90
2018-12-18T06:21:11.948Z,3.80
2018-12-18T06:23:39.480Z,3.70
2018-12-18T06:26:06.977Z,3.90
2018-12-18T06:28:34.493Z,3.90
2018-12-18T06:31:02.033Z,3.90
2018-12-18T06:33:29.570Z,4.00
2018-12-18T06:35:57.066Z,4.10
2018-12-18T06:38:24.608Z,4.10
2018-12-18T06:40:52.108Z,4.00
2018-12-18T06:43:19.636Z,3.90
2018-12-18T06:45:47.168Z,3.80
2018-12-18T06:48:14.670Z,3.70
2018-12-18T06:50:42.209Z,3.80
2018-12-18T06:53:09.716Z,3.70
2018-12-18T06:55:37.263Z,3.70
2018-12-18T06:58:04.840Z,3.70
2018-12-18T07:00:32.351Z,3.70
2018-12-18T07:02:59.986Z,3.60
2018-12-18T07:05:27.480Z,3.70
2018-12-18T07:07:57.532Z,3.70
2018-12-18T07:10:24.627Z,3.70
2018-12-18T07:12:52.384Z,3.90
2018-12-18T07:15:19.925Z,3.90
2018-12-18T07:17:47.440Z,3.80
2018-12-18T07:20:14.997Z,3.80
2018-12-18T07:22:42.497Z,4.00
2018-12-18T07:25:09.996Z,4.10
2018-12-18T07:27:37.524Z,4.00
2018-12-18T07:30:06.833Z,4.10
2018-12-18T07:32:34.338Z,4.00
2018-12-18T07:35:02.137Z,4.10
2018-12-18T07:37:29.636Z,4.00
2018-12-18T07:39:57.457Z,4.20
2018-12-18T07:42:24.958Z,4.20
2018-12-18T07:44:52.506Z,4.20
2018-12-18T07:47:20.019Z,4.00
2018-12-18T07:49:47.556Z,4.10
2018-12-18T07:52:15.088Z,4.20
2018-12-18T07:54:42.581Z,4.20
2018-12-18T07:57:10.119Z,4.10
2018-12-18T07:59:37.618Z,4.20
2018-12-18T08:02:05.317Z,4.20
2018-12-18T08:04:32.886Z,4.30
2018-12-18T08:07:00.435Z,4.20
2018-12-18T08:09:27.965Z,4.20
2018-12-18T08:11:55.579Z,4.20
2018-12-18T08:14:23.459Z,4.20
2018-12-18T08:16:51.001Z,4.30
2018-12-18T08:19:18.537Z,4.50
2018-12-18T08:21:46.035Z,4.40
2018-12-18T08:24:13.565Z,4.60
2018-12-18T08:26:41.131Z,4.40
2018-12-18T08:29:08.674Z,4.30
2018-12-18T08:31:36.244Z,4.30
2018-12-18T08:34:03.914Z,4.20
2018-12-18T08:36:31.413Z,4.20
2018-12-18T08:38:58.956Z,4.20
2018-12-18T08:41:26.453Z,4.20
2018-12-18T08:43:53.945Z,4.30
2018-12-18T08:46:21.477Z,4.20
2018-12-18T08:48:49.009Z,4.20
2018-12-18T08:51:16.545Z,4.40
2018-12-18T08:53:44.085Z,4.50
2018-12-18T08:56:11.629Z,4.60
2018-12-18T08:58:39.130Z,4.60
2018-12-18T09:01:06.629Z,4.60
2018-12-18T09:03:34.489Z,4.70
2018-12-18T09:06:01.988Z,4.60
2018-12-18T09:08:29.558Z,4.80
2018-12-18T09:10:57.097Z,4.80
2018-12-18T09:13:24.590Z,4.70
2018-12-18T09:15:56.269Z,4.70
2018-12-18T09:18:23.841Z,4.90
2018-12-18T09:20:51.376Z,4.90
2018-12-18T09:23:18.869Z,4.90
2018-12-18T09:25:46.406Z,5.00
2018-12-18T09:28:13.909Z,4.90
2018-12-18T09:30:42.710Z,5.00
2018-12-18T09:33:10.569Z,5.30
2018-12-18T09:35:38.114Z,5.50
2018-12-18T09:38:11.210Z,5.50
2018-12-18T09:43:53.078Z,5.60
2018-12-18T09:46:20.923Z,5.70
2018-12-18T09:48:48.461Z,5.70
2018-12-18T09:51:15.957Z,5.80
2018-12-18T09:53:43.521Z,5.90
2018-12-18T09:56:11.350Z,6.10
2018-12-18T09:58:38.886Z,6.30
2018-12-18T10:01:06.470Z,6.60
2018-12-18T10:03:34.002Z,6.90
2018-12-18T10:06:01.497Z,7.10
2018-12-18T10:08:29.037Z,6.90
2018-12-18T10:10:56.525Z,6.90
2018-12-18T10:13:24.029Z,6.90
2018-12-18T10:15:51.565Z,6.90
2018-12-18T10:18:19.061Z,7.10
2018-12-18T10:20:46.596Z,7.10
2018-12-18T10:23:14.158Z,7.30
2018-12-18T10:25:41.725Z,7.50
2018-12-18T10:28:09.212Z,7.70
2018-12-18T10:30:36.763Z,7.70
2018-12-18T10:33:04.324Z,7.70
2018-12-18T10:35:36.499Z,7.60
2018-12-18T10:38:01.418Z,7.40
2018-12-18T10:40:28.922Z,7.40
2018-12-18T10:42:56.448Z,7.40
2018-12-18T10:45:24.009Z,7.60
2018-12-18T10:47:51.617Z,7.70
2018-12-18T10:50:19.110Z,7.80
2018-12-18T10:52:46.651Z,7.80
2018-12-18T10:55:14.144Z,7.60
2018-12-18T10:57:42.005Z,7.50
2018-12-18T11:00:12.108Z,7.50
2018-12-18T11:02:39.640Z,7.40
2018-12-18T11:05:07.202Z,7.30
2018-12-18T11:07:34.738Z,7.30
2018-12-18T11:10:02.340Z,7.30
2018-12-18T11:12:35.440Z,7.30
2018-12-18T11:15:03.006Z,7.40
2018-12-18T11:17:30.502Z,7.50
2018-12-18T11:19:58.030Z,7.40
2018-12-18T11:22:25.534Z,7.20
2018-12-18T11:24:53.067Z,7.10
2018-12-18T11:27:20.561Z,7.10
2018-12-18T11:29:48.097Z,7.20
2018-12-18T11:32:15.609Z,7.30
2018-12-18T11:34:43.208Z,7.30
2018-12-18T11:37:10.845Z,7.30
2018-12-18T11:39:38.499Z,7.30
2018-12-18T11:42:06.325Z,7.30
2018-12-18T11:44:33.835Z,7.30
2018-12-18T11:47:01.378Z,7.30
2018-12-18T11:49:28.870Z,7.20
2018-12-18T11:51:56.659Z,7.30
2018-12-18T11:54:24.190Z,7.10
2018-12-18T11:56:51.681Z,7.10
2018-12-18T11:59:19.221Z,7.10
2018-12-18T12:01:46.721Z,7.10
2018-12-18T12:04:14.261Z,7.20
2018-12-18T12:06:41.754Z,7.20
2018-12-18T12:09:09.249Z,7.30
2018-12-18T12:11:36.874Z,7.40
2018-12-18T12:14:04.400Z,7.40
2018-12-18T12:16:31.936Z,7.40
2018-12-18T12:18:59.461Z,7.40
2018-12-18T12:21:26.959Z,7.40
2018-12-18T12:23:54.617Z,7.40
2018-12-18T12:26:27.859Z,7.40
2018-12-18T12:28:55.353Z,7.50
2018-12-18T12:31:22.881Z,7.50
2018-12-18T12:33:50.381Z,7.50
2018-12-18T12:36:18.001Z,7.40
2018-12-18T12:38:45.493Z,7.50
2018-12-18T12:41:12.984Z,7.40
2018-12-18T12:43:40.514Z,7.40
2018-12-18T12:46:08.051Z,7.30
2018-12-18T12:48:41.286Z,7.30
2018-12-18T12:51:08.870Z,7.30
2018-12-18T12:53:36.635Z,7.30
2018-12-18T12:56:04.143Z,7.40
2018-12-18T12:58:31.677Z,7.40
2018-12-18T13:00:59.170Z,7.40
2018-12-18T13:03:26.718Z,7.30
2018-12-18T13:05:54.213Z,7.40
2018-12-18T13:08:21.743Z,7.40
2018-12-18T13:10:49.237Z,7.20
2018-12-18T13:13:16.778Z,7.30
2018-12-18T13:15:44.273Z,7.30
2018-12-18T13:18:11.812Z,7.20
2018-12-18T13:20:39.305Z,7.30
2018-12-18T13:23:06.858Z,7.30
2018-12-18T13:25:34.563Z,7.40
2018-12-18T13:28:02.109Z,7.40
2018-12-18T13:30:29.648Z,7.40
2018-12-18T13:32:57.154Z,7.40
2018-12-18T13:35:24.682Z,7.30
2018-12-18T13:37:52.183Z,7.30
2018-12-18T13:40:19.726Z,7.30
2018-12-18T13:42:47.269Z,7.20
2018-12-18T13:45:14.766Z,7.30
2018-12-18T13:47:42.577Z,7.30
2018-12-18T13:50:10.064Z,7.30
2018-12-18T13:52:37.625Z,7.30
2018-12-18T13:55:05.190Z,7.40
2018-12-18T13:57:32.723Z,7.30
2018-12-18T14:00:00.226Z,7.40
2018-12-18T14:02:27.764Z,7.30
2018-12-18T14:04:55.254Z,7.40
2018-12-18T14:07:22.785Z,7.50
2018-12-18T14:09:50.585Z,7.50
2018-12-18T14:12:18.250Z,7.30
2018-12-18T14:14:45.758Z,7.30
2018-12-18T14:17:13.288Z,7.30
2018-12-18T14:19:40.794Z,7.30
2018-12-18T14:22:08.330Z,7.20
2018-12-18T14:24:35.882Z,7.20
2018-12-18T14:27:03.374Z,7.20
2018-12-18T14:29:31.096Z,7.20
2018-12-18T14:31:58.606Z,7.20
2018-12-18T14:34:26.362Z,7.00
2018-12-18T14:36:56.461Z,7.00
2018-12-18T14:39:23.455Z,6.90
2018-12-18T14:41:50.954Z,6.80
2018-12-18T14:44:18.493Z,6.80
2018-12-18T14:46:46.030Z,6.90
2018-12-18T14:49:13.529Z,6.90
2018-12-18T14:51:41.069Z,6.70
2018-12-18T14:54:08.646Z,6.60
2018-12-18T14:56:36.421Z,6.50
2018-12-18T14:59:03.982Z,6.40
2018-12-18T15:01:31.523Z,6.40
2018-12-18T15:03:59.021Z,6.40
2018-12-18T15:06:26.526Z,6.50
2018-12-18T15:08:54.057Z,6.50
2018-12-18T15:11:21.554Z,6.50
2018-12-18T15:13:49.091Z,6.50
2018-12-18T15:16:16.589Z,6.50
2018-12-18T15:18:44.145Z,6.50
2018-12-18T15:21:11.637Z,6.30
2018-12-18T15:23:39.138Z,6.40
2018-12-18T15:26:06.686Z,6.40
2018-12-18T15:28:34.293Z,6.40
2018-12-18T15:31:01.878Z,6.50
2018-12-18T15:33:29.375Z,6.50
2018-12-18T15:35:56.943Z,6.30
2018-12-18T15:38:24.490Z,6.30
2018-12-18T15:40:51.985Z,6.20
2018-12-18T15:43:19.535Z,6.20
2018-12-18T15:45:47.094Z,6.20
2018-12-18T15:48:14.596Z,6.20
2018-12-18T15:50:42.142Z,6.10
2018-12-18T15:53:09.653Z,6.00
2018-12-18T15:55:37.190Z,6.00
2018-12-18T15:58:04.697Z,5.90
2018-12-18T16:00:32.282Z,5.90
2018-12-18T16:02:59.781Z,5.80
2018-12-18T16:05:27.365Z,5.80
2018-12-18T16:07:54.902Z,5.80
2018-12-18T16:10:22.397Z,5.80
2018-12-18T16:12:49.936Z,5.80
2018-12-18T16:15:17.439Z,5.70
2018-12-18T16:17:44.989Z,5.70
2018-12-18T16:20:12.574Z,5.70
2018-12-18T16:22:40.077Z,5.60
2018-12-18T16:25:07.630Z,5.60
2018-12-18T16:27:35.138Z,5.60
2018-12-18T16:30:02.899Z,5.40
2018-12-18T16:32:30.445Z,5.30
2018-12-18T16:34:57.942Z,5.30
2018-12-18T16:37:25.772Z,5.40
2018-12-18T16:39:53.282Z,5.40
2018-12-18T16:42:20.822Z,5.40
2018-12-18T16:44:49.027Z,5.30
2018-12-18T16:47:16.565Z,5.40
2018-12-18T16:49:44.350Z,5.30
2018-12-18T16:52:11.903Z,5.30
2018-12-18T16:54:39.468Z,5.20
2018-12-18T16:57:13.096Z,5.20
2018-12-18T16:59:36.562Z,5.10
2018-12-18T17:02:04.057Z,5.10
2018-12-18T17:04:31.561Z,5.00
2018-12-18T17:06:59.110Z,4.90
2018-12-18T17:09:26.607Z,4.90
2018-12-18T17:11:54.151Z,5.00
2018-12-18T17:14:21.671Z,4.90
2018-12-18T17:16:49.210Z,4.90
2018-12-18T17:19:16.729Z,4.90
2018-12-18T17:21:44.272Z,4.90
2018-12-18T17:24:11.804Z,4.80
2018-12-18T17:26:39.352Z,4.80
2018-12-18T17:29:06.862Z,4.60
2018-12-18T17:31:34.723Z,4.50
2018-12-18T17:34:02.228Z,4.30
2018-12-18T17:36:29.747Z,4.30
2018-12-18T17:38:57.288Z,4.10
2018-12-18T17:41:24.810Z,4.00
2018-12-18T17:43:52.750Z,3.90
2018-12-18T17:46:20.250Z,4.00
2018-12-18T17:48:47.814Z,4.20
2018-12-18T17:51:15.337Z,4.00
2018-12-18T17:53:42.880Z,3.80
2018-12-18T17:56:10.387Z,3.70
2018-12-18T17:58:37.943Z,3.50
2018-12-18T18:01:05.553Z,3.50
2018-12-18T18:03:33.078Z,3.40
2018-12-18T18:06:00.713Z,3.50
2018-12-18T18:08:28.293Z,3.60
2018-12-18T18:10:56.174Z,3.50
2018-12-18T18:13:23.842Z,3.40
2018-12-18T18:15:51.339Z,3.30
2018-12-18T18:18:18.931Z,3.40
2018-12-18T18:20:46.632Z,3.50
2018-12-18T18:23:14.184Z,3.50
2018-12-18T18:25:41.686Z,3.30
2018-12-18T18:28:09.230Z,3.00
2018-12-18T18:30:36.797Z,3.00
2018-12-18T18:33:04.323Z,3.10
2018-12-18T18:35:32.317Z,3.50
2018-12-18T18:37:59.857Z,3.20
2018-12-18T18:40:27.438Z,2.90
2018-12-18T18:42:54.962Z,3.00
2018-12-18T18:45:22.506Z,2.80
2018-12-18T18:47:50.024Z,2.70
2018-12-18T18:50:17.568Z,2.70
2018-12-18T18:52:45.114Z,2.90
2018-12-18T18:55:12.664Z,3.10
2018-12-18T18:57:40.179Z,3.20
2018-12-18T19:00:08.443Z,3.30
2018-12-18T19:02:35.992Z,3.40
2018-12-18T19:05:03.657Z,3.40
2018-12-18T19:07:31.201Z,3.30
2018-12-18T19:09:58.709Z,3.30
2018-12-18T19:12:26.261Z,3.40
2018-12-18T19:14:53.777Z,3.40
2018-12-18T19:17:21.289Z,3.40
2018-12-18T19:19:49.977Z,3.30
2018-12-18T19:22:17.491Z,3.30
2018-12-18T19:24:45.037Z,3.30
2018-12-18T19:27:12.549Z,3.40
2018-12-18T19:29:40.125Z,3.40
2018-12-18T19:32:07.632Z,3.40
2018-12-18T19:34:35.129Z,3.40
2018-12-18T19:37:02.678Z,3.40
2018-12-18T19:39:31.181Z,3.60
2018-12-18T19:41:58.895Z,3.50
2018-12-18T19:44:26.402Z,3.50
2018-12-18T19:46:54.000Z,3.70
2018-12-18T19:49:21.511Z,3.60
2018-12-18T19:51:49.189Z,3.60
2018-12-18T19:54:16.702Z,3.70
2018-12-18T19:56:44.501Z,3.60
2018-12-18T19:59:12.019Z,3.40
2018-12-18T20:01:39.594Z,3.20
2018-12-18T20:04:07.116Z,3.30
2018-12-18T20:06:34.693Z,3.30
2018-12-18T20:09:02.296Z,3.30
2018-12-18T20:11:29.898Z,3.20
2018-12-18T20:13:57.421Z,3.30
2018-12-18T20:16:25.006Z,3.30
2018-12-18T20:18:52.559Z,3.40
2018-12-18T20:21:20.074Z,3.30
2018-12-18T20:23:47.624Z,3.40
2018-12-18T20:26:15.219Z,3.40
2018-12-18T20:28:42.766Z,3.20
2018-12-18T20:31:10.343Z,3.20
2018-12-18T20:33:37.877Z,3.30
2018-12-18T20:36:05.382Z,3.20
2018-12-18T20:38:32.922Z,3.20
2018-12-18T20:41:00.435Z,3.00
2018-12-18T20:43:27.974Z,3.10
2018-12-18T20:45:55.490Z,3.10
2018-12-18T20:48:23.076Z,3.30
2018-12-18T20:50:50.662Z,3.20
2018-12-18T20:53:18.173Z,3.10
2018-12-18T20:55:45.777Z,3.10
2018-12-18T20:58:13.277Z,3.00
2018-12-18T21:00:40.829Z,3.10
2018-12-18T21:03:08.350Z,3.00
2018-12-18T21:05:35.986Z,3.00
2018-12-18T21:08:03.591Z,3.10
2018-12-18T21:10:31.138Z,3.00
2018-12-18T21:13:00.638Z,3.10
2018-12-18T21:15:28.194Z,3.10
2018-12-18T21:17:55.733Z,3.00
2018-12-18T21:20:23.362Z,2.90
2018-12-18T21:22:50.874Z,2.80
2018-12-18T21:25:19.105Z,2.70
2018-12-18T21:27:46.867Z,2.70
2018-12-18T21:30:14.377Z,2.70
2018-12-18T21:32:41.926Z,2.80
2018-12-18T21:35:09.435Z,2.60
2018-12-18T21:37:37.000Z,2.50
2018-12-18T21:40:05.921Z,2.40
2018-12-18T21:42:33.450Z,2.60
2018-12-18T21:45:01.592Z,2.70
2018-12-18T21:47:29.102Z,2.50
2018-12-18T21:49:56.953Z,2.30
2018-12-18T21:52:24.479Z,2.30
2018-12-18T21:54:52.039Z,2.30
2018-12-18T21:57:19.592Z,2.40
2018-12-18T21:59:47.107Z,2.10
2018-12-18T22:02:14.717Z,2.00
2018-12-18T22:04:42.224Z,2.10
2018-12-18T22:07:09.735Z,2.20
2018-12-18T22:09:37.277Z,1.90
2018-12-18T22:12:04.823Z,1.80
2018-12-18T22:14:32.369Z,1.70
2018-12-18T22:16:59.918Z,1.60
2018-12-18T22:19:28.639Z,1.60
2018-12-18T22:21:56.246Z,1.70
2018-12-18T22:24:23.749Z,1.70
2018-12-18T22:26:52.725Z,1.60
2018-12-18T22:29:20.294Z,1.30
2018-12-18T22:31:47.812Z,1.50
2018-12-18T22:34:15.352Z,1.70
2018-12-18T22:36:42.864Z,1.60
2018-12-18T22:39:10.404Z,1.30
2018-12-18T22:41:37.941Z,1.10
2018-12-18T22:44:05.483Z,1.10
2018-12-18T22:46:32.992Z,1.20
2018-12-18T22:49:00.535Z,1.20
2018-12-18T22:51:28.047Z,1.40
2018-12-18T22:53:55.637Z,1.20
2018-12-18T22:56:23.205Z,1.10
2018-12-18T22:58:50.714Z,1.00
2018-12-18T23:04:16.715Z,0.80
2018-12-18T23:06:44.276Z,0.90
2018-12-18T23:09:14.240Z,1.10
2018-12-18T23:11:41.741Z,1.40
2018-12-18T23:14:09.282Z,1.50
2018-12-18T23:16:36.794Z,1.40
2018-12-18T23:19:04.393Z,1.20
2018-12-18T23:21:31.899Z,1.00
2018-12-18T23:23:59.445Z,0.90
2018-12-18T23:26:26.957Z,0.90
2018-12-18T23:28:54.511Z,0.90
2018-12-18T23:31:22.025Z,0.90
2018-12-18T23:33:49.580Z,0.90
2018-12-18T23:36:17.296Z,1.00
2018-12-18T23:38:44.819Z,1.00
2018-12-18T23:41:12.367Z,1.20
2018-12-18T23:43:39.881Z,1.30
2018-12-18T23:46:07.421Z,1.30
2018-12-18T23:48:39.671Z,1.20
2018-12-18T23:51:04.502Z,1.00
2018-12-18T23:53:32.014Z,1.00
2018-12-18T23:55:59.600Z,1.00
2018-12-18T23:58:27.131Z,1.30
